Time;durP1;ratioP1;P1;durP2;ratioP2;P2;SDS_P1;SDS_P2;PMS_P1;PMS_P2;Temp;Humidity;BMP_temperature;BMP_pressure;BME280_temperature;BME280_humidity;BME280_pressure;Samples;Min_cycle;Max_cycle;Signal;HPM_P1;HPM_P2
2022/07/18 00:02:07;;;;;;;15.45;8.73;;;;;;;;;;4988421;28;89624;-73
2022/07/18 00:04:34;;;;;;;11.30;8.70;;;;;;;;;;4987612;28;89295;-73
2022/07/18 00:07:00;;;;;;;13.73;9.13;;;;;;;;;;4987110;28;89559;-73
2022/07/18 00:09:27;;;;;;;12.40;8.43;;;;;;;;;;4997274;28;88808;-73
2022/07/18 00:12:01;;;;;;;15.15;8.20;;;;;;;;;;4990934;28;89531;-73
2022/07/18 00:14:27;;;;;;;12.52;8.35;;;;;;;;;;4994964;28;88558;-73
2022/07/18 00:16:53;;;;;;;11.30;8.18;;;;;;;;;;4992238;28;88729;-73
2022/07/18 00:19:20;;;;;;;12.35;8.32;;;;;;;;;;4992314;28;90243;-73
2022/07/18 00:21:46;;;;;;;12.70;8.20;;;;;;;;;;4992609;28;89876;-72
2022/07/18 00:24:13;;;;;;;14.60;8.95;;;;;;;;;;4983247;28;88663;-73
2022/07/18 00:26:39;;;;;;;11.20;8.60;;;;;;;;;;4986745;28;88939;-73
2022/07/18 00:29:05;;;;;;;10.57;8.77;;;;;;;;;;4986584;28;90480;-72
2022/07/18 00:31:32;;;;;;;10.63;8.50;;;;;;;;;;4987359;28;89191;-73
2022/07/18 00:33:59;;;;;;;17.35;9.32;;;;;;;;;;4984843;28;89751;-73
2022/07/18 00:36:25;;;;;;;11.88;8.38;;;;;;;;;;4984874;28;90296;-73
2022/07/18 00:38:52;;;;;;;12.23;9.00;;;;;;;;;;4987030;28;89391;-73
2022/07/18 00:41:18;;;;;;;10.70;9.60;;;;;;;;;;4987498;28;89543;-73
2022/07/18 00:43:44;;;;;;;20.83;10.02;;;;;;;;;;4985849;28;89684;-73
2022/07/18 00:46:11;;;;;;;14.98;9.80;;;;;;;;;;4985668;28;90143;-73
2022/07/18 00:48:42;;;;;;;12.55;10.18;;;;;;;;;;4993524;28;90850;-73
2022/07/18 00:51:08;;;;;;;12.32;10.02;;;;;;;;;;4984955;28;90694;-73
2022/07/18 00:53:35;;;;;;;13.68;10.02;;;;;;;;;;4986623;28;90196;-73
2022/07/18 00:56:02;;;;;;;15.70;10.25;;;;;;;;;;4986382;27;90635;-73
2022/07/18 00:58:28;;;;;;;17.75;9.13;;;;;;;;;;4986018;28;91184;-73
2022/07/18 01:03:40;;;;;;;13.80;10.13;;;;;;;;;;4989132;28;90491;-73
2022/07/18 01:06:06;;;;;;;13.85;9.70;;;;;;;;;;4989146;28;89794;-73
2022/07/18 01:08:33;;;;;;;13.40;10.15;;;;;;;;;;4987897;28;91028;-73
2022/07/18 01:10:59;;;;;;;14.30;10.35;;;;;;;;;;4992246;28;90385;-73
2022/07/18 01:13:26;;;;;;;16.48;11.07;;;;;;;;;;4987305;28;89945;-73
2022/07/18 01:15:52;;;;;;;17.25;10.27;;;;;;;;;;4987078;28;89140;-73
2022/07/18 01:18:19;;;;;;;16.45;10.60;;;;;;;;;;4988726;28;90331;-72
2022/07/18 01:20:45;;;;;;;11.88;10.32;;;;;;;;;;4989259;27;89996;-73
2022/07/18 01:23:11;;;;;;;12.45;10.70;;;;;;;;;;4985841;28;90228;-73
2022/07/18 01:25:38;;;;;;;16.90;10.25;;;;;;;;;;4983297;27;90558;-72
2022/07/18 01:28:04;;;;;;;15.55;11.45;;;;;;;;;;4990216;28;90925;-73
2022/07/18 01:30:30;;;;;;;14.77;9.77;;;;;;;;;;4993094;28;90803;-72
2022/07/18 01:32:58;;;;;;;17.58;10.57;;;;;;;;;;4989366;28;90239;-73
2022/07/18 01:35:25;;;;;;;13.50;10.32;;;;;;;;;;4986349;28;90488;-73
2022/07/18 01:37:56;;;;;;;15.57;9.82;;;;;;;;;;4984050;28;89433;-73
2022/07/18 01:40:23;;;;;;;13.82;11.02;;;;;;;;;;4988391;27;90286;-73
2022/07/18 01:42:49;;;;;;;13.80;10.70;;;;;;;;;;4983463;28;90021;-73
2022/07/18 01:45:16;;;;;;;14.30;9.80;;;;;;;;;;4983547;28;90429;-73
2022/07/18 01:47:42;;;;;;;15.10;10.45;;;;;;;;;;4984094;28;90066;-73
2022/07/18 01:50:10;;;;;;;15.35;10.80;;;;;;;;;;4984138;28;90596;-73
2022/07/18 01:52:37;;;;;;;20.85;11.02;;;;;;;;;;4991174;28;90553;-73
2022/07/18 01:55:05;;;;;;;14.85;10.25;;;;;;;;;;4984799;28;91128;-73
2022/07/18 01:57:31;;;;;;;19.38;10.93;;;;;;;;;;4984684;28;89690;-73
2022/07/18 01:59:57;;;;;;;15.40;9.88;;;;;;;;;;4986756;28;91166;-72
2022/07/18 02:02:24;;;;;;;20.88;10.63;;;;;;;;;;4988479;28;89724;-72
2022/07/18 02:04:59;;;;;;;16.52;11.30;;;;;;;;;;4983076;28;89975;-72
2022/07/18 02:07:26;;;;;;;13.85;10.98;;;;;;;;;;4988060;28;89230;-72
2022/07/18 02:09:53;;;;;;;15.98;10.52;;;;;;;;;;4985960;27;89671;-72
2022/07/18 02:12:19;;;;;;;12.77;10.45;;;;;;;;;;4985336;27;89435;-72
2022/07/18 02:14:46;;;;;;;12.45;10.45;;;;;;;;;;4989244;28;90114;-73
2022/07/18 02:17:12;;;;;;;19.88;10.95;;;;;;;;;;4979625;28;89578;-72
2022/07/18 02:19:39;;;;;;;13.48;10.95;;;;;;;;;;4985048;28;90563;-72
2022/07/18 02:22:05;;;;;;;19.35;11.82;;;;;;;;;;4987204;28;90949;-72
2022/07/18 02:24:32;;;;;;;13.85;10.73;;;;;;;;;;4988025;28;89469;-72
2022/07/18 02:27:00;;;;;;;17.90;10.90;;;;;;;;;;4985353;28;89928;-72
2022/07/18 02:29:26;;;;;;;16.08;10.75;;;;;;;;;;4981673;28;89641;-73
2022/07/18 02:31:52;;;;;;;16.15;11.10;;;;;;;;;;4984721;28;91170;-72
2022/07/18 02:34:19;;;;;;;12.27;10.60;;;;;;;;;;4984005;28;92832;-72
2022/07/18 02:36:45;;;;;;;15.75;10.73;;;;;;;;;;4986619;28;90271;-72
2022/07/18 02:39:11;;;;;;;15.88;10.23;;;;;;;;;;4982668;28;90992;-72
2022/07/18 02:41:38;;;;;;;13.77;10.15;;;;;;;;;;4987117;28;89457;-72
2022/07/18 02:44:04;;;;;;;13.20;10.07;;;;;;;;;;4984852;28;89998;-72
2022/07/18 02:46:31;;;;;;;21.55;10.68;;;;;;;;;;4990050;28;90981;-72
2022/07/18 02:48:57;;;;;;;11.07;9.82;;;;;;;;;;4987215;27;89899;-72
2022/07/18 02:51:24;;;;;;;12.13;10.52;;;;;;;;;;4984403;28;88839;-72
2022/07/18 02:53:50;;;;;;;14.15;10.43;;;;;;;;;;4984012;28;90675;-72
2022/07/18 02:56:16;;;;;;;13.88;10.75;;;;;;;;;;4987636;28;89991;-72
2022/07/18 02:58:43;;;;;;;12.65;10.68;;;;;;;;;;4982206;27;90931;-72
2022/07/18 03:01:09;;;;;;;18.05;10.68;;;;;;;;;;4985038;28;90163;-72
2022/07/18 03:03:36;;;;;;;13.63;10.52;;;;;;;;;;4982180;28;89442;-73
2022/07/18 03:06:02;;;;;;;13.55;10.30;;;;;;;;;;4980713;28;91180;-73
2022/07/18 03:08:28;;;;;;;11.73;9.88;;;;;;;;;;4987591;28;89885;-72
2022/07/18 03:10:55;;;;;;;11.93;10.13;;;;;;;;;;4988358;28;89349;-72
2022/07/18 03:13:21;;;;;;;12.73;9.95;;;;;;;;;;4988188;28;89986;-72
2022/07/18 03:15:48;;;;;;;14.57;11.18;;;;;;;;;;4986078;28;89629;-73
2022/07/18 03:18:14;;;;;;;13.63;11.40;;;;;;;;;;4991790;28;90708;-72
2022/07/18 03:20:40;;;;;;;16.65;10.60;;;;;;;;;;4990918;28;89417;-72
2022/07/18 03:23:07;;;;;;;14.27;10.45;;;;;;;;;;4990823;28;89641;-72
2022/07/18 03:25:34;;;;;;;18.42;10.65;;;;;;;;;;4984932;28;90183;-72
2022/07/18 03:28:01;;;;;;;13.10;10.95;;;;;;;;;;4985936;28;91411;-73
2022/07/18 03:30:27;;;;;;;15.60;10.98;;;;;;;;;;4990361;28;90226;-73
2022/07/18 03:32:53;;;;;;;23.08;11.20;;;;;;;;;;4989588;28;90978;-72
2022/07/18 03:35:20;;;;;;;11.90;10.15;;;;;;;;;;4990606;28;90218;-73
2022/07/18 03:37:46;;;;;;;13.60;10.75;;;;;;;;;;4987262;28;90225;-72
2022/07/18 03:40:13;;;;;;;15.63;10.02;;;;;;;;;;4991279;27;90814;-72
2022/07/18 03:42:39;;;;;;;15.85;11.63;;;;;;;;;;4985796;28;89907;-72
2022/07/18 03:45:06;;;;;;;16.33;10.43;;;;;;;;;;4988775;28;90977;-72
2022/07/18 03:47:33;;;;;;;12.20;9.68;;;;;;;;;;4987158;28;90602;-72
2022/07/18 03:49:59;;;;;;;10.25;9.25;;;;;;;;;;4990640;28;88890;-72
2022/07/18 03:52:26;;;;;;;18.15;10.93;;;;;;;;;;4989856;28;90136;-72
2022/07/18 03:54:52;;;;;;;17.92;10.63;;;;;;;;;;4986839;28;91897;-72
2022/07/18 03:57:19;;;;;;;12.30;10.02;;;;;;;;;;4987369;28;89959;-72
2022/07/18 03:59:45;;;;;;;15.07;9.68;;;;;;;;;;4988401;28;90808;-72
2022/07/18 04:02:11;;;;;;;13.60;10.20;;;;;;;;;;4993746;28;89492;-72
2022/07/18 04:04:38;;;;;;;12.50;8.75;;;;;;;;;;4992965;28;89192;-72
2022/07/18 04:07:04;;;;;;;15.73;10.48;;;;;;;;;;4987347;28;89609;-72
2022/07/18 04:09:31;;;;;;;11.63;10.20;;;;;;;;;;4985325;28;91760;-71
2022/07/18 04:11:57;;;;;;;12.90;10.35;;;;;;;;;;4984065;28;90900;-72
2022/07/18 04:14:23;;;;;;;11.98;9.90;;;;;;;;;;4984844;28;90308;-72
2022/07/18 04:16:50;;;;;;;11.23;9.85;;;;;;;;;;4985694;28;90173;-72
2022/07/18 04:19:19;;;;;;;13.80;9.90;;;;;;;;;;4984544;28;89432;-72
2022/07/18 04:21:47;;;;;;;12.98;9.82;;;;;;;;;;4980172;28;90279;-72
2022/07/18 04:24:14;;;;;;;13.38;9.38;;;;;;;;;;4991026;28;88910;-72
2022/07/18 04:26:40;;;;;;;25.60;10.27;;;;;;;;;;4987954;28;89073;-72
2022/07/18 04:29:06;;;;;;;16.77;9.32;;;;;;;;;;4983106;28;90834;-73
2022/07/18 04:31:33;;;;;;;17.48;9.60;;;;;;;;;;4988883;28;89889;-73
2022/07/18 04:34:00;;;;;;;21.45;9.13;;;;;;;;;;4988469;28;89911;-73
2022/07/18 04:36:26;;;;;;;14.25;9.68;;;;;;;;;;4983478;28;88604;-73
2022/07/18 04:38:52;;;;;;;21.48;9.48;;;;;;;;;;4986489;28;90512;-72
2022/07/18 04:41:22;;;;;;;13.75;8.65;;;;;;;;;;4989862;28;90285;-72
2022/07/18 04:43:48;;;;;;;11.63;8.75;;;;;;;;;;4989862;28;89830;-73
2022/07/18 04:46:15;;;;;;;18.88;9.48;;;;;;;;;;4986577;28;89403;-73
2022/07/18 04:48:41;;;;;;;22.85;8.50;;;;;;;;;;4987291;28;89443;-72
2022/07/18 04:51:07;;;;;;;16.98;8.70;;;;;;;;;;4989697;28;90042;-73
2022/07/18 04:53:34;;;;;;;11.50;8.82;;;;;;;;;;4989829;28;88655;-73
2022/07/18 04:56:00;;;;;;;10.95;8.35;;;;;;;;;;4988253;28;89643;-72
2022/07/18 04:58:26;;;;;;;13.27;8.68;;;;;;;;;;4989286;28;89352;-73
2022/07/18 05:00:53;;;;;;;18.13;8.57;;;;;;;;;;4987171;28;88045;-73
2022/07/18 05:03:19;;;;;;;14.57;7.80;;;;;;;;;;4987321;28;89425;-73
2022/07/18 05:05:46;;;;;;;10.18;8.15;;;;;;;;;;4987638;28;90213;-73
2022/07/18 05:08:13;;;;;;;13.63;9.10;;;;;;;;;;4995792;28;89484;-73
2022/07/18 05:10:40;;;;;;;10.32;7.90;;;;;;;;;;4988989;28;89224;-73
2022/07/18 05:13:06;;;;;;;8.50;6.93;;;;;;;;;;4986487;28;89069;-73
2022/07/18 05:15:33;;;;;;;7.90;7.20;;;;;;;;;;4986128;28;89833;-74
2022/07/18 05:17:59;;;;;;;14.88;8.65;;;;;;;;;;4989290;28;89563;-73
2022/07/18 05:20:26;;;;;;;10.68;7.15;;;;;;;;;;4983095;28;90069;-73
2022/07/18 05:22:53;;;;;;;10.25;8.57;;;;;;;;;;4992548;28;89313;-74
2022/07/18 05:25:22;;;;;;;9.55;8.57;;;;;;;;;;4994064;28;88525;-74
2022/07/18 05:27:49;;;;;;;12.90;7.50;;;;;;;;;;4989030;28;89380;-74
2022/07/18 05:30:17;;;;;;;11.43;8.57;;;;;;;;;;4990088;28;88967;-73
2022/07/18 05:32:44;;;;;;;10.02;8.48;;;;;;;;;;4989514;28;90210;-74
2022/07/18 05:35:12;;;;;;;9.02;8.13;;;;;;;;;;4987495;28;90075;-73
2022/07/18 05:37:40;;;;;;;13.30;8.40;;;;;;;;;;4986278;28;89880;-74
2022/07/18 05:40:09;;;;;;;15.10;8.27;;;;;;;;;;4988414;28;88437;-74
2022/07/18 05:42:35;;;;;;;10.98;7.68;;;;;;;;;;4994826;27;89246;-74
2022/07/18 05:45:19;;;;;;;12.10;6.57;;;;;;;;;;4987649;28;88145;-74
2022/07/18 05:47:45;;;;;;;12.73;8.32;;;;;;;;;;4987445;28;89925;-74
2022/07/18 05:50:12;;;;;;;10.02;8.05;;;;;;;;;;5000516;28;91366;-74
2022/07/18 05:52:38;;;;;;;19.85;8.20;;;;;;;;;;4995563;28;89799;-74
2022/07/18 05:55:05;;;;;;;9.30;7.95;;;;;;;;;;4995193;28;90523;-74
2022/07/18 05:57:31;;;;;;;11.52;8.50;;;;;;;;;;4994993;28;88975;-74
2022/07/18 05:59:58;;;;;;;14.18;8.20;;;;;;;;;;4983246;28;89786;-74
2022/07/18 06:02:24;;;;;;;15.80;8.02;;;;;;;;;;4993727;28;89786;-74
2022/07/18 06:04:51;;;;;;;18.05;8.27;;;;;;;;;;4996413;28;88070;-74
2022/07/18 06:07:37;;;;;;;12.25;7.70;;;;;;;;;;4984871;28;89046;-74
2022/07/18 06:10:04;;;;;;;13.63;7.90;;;;;;;;;;4994494;28;89335;-74
2022/07/18 06:12:31;;;;;;;13.13;8.00;;;;;;;;;;5000256;28;88730;-74
2022/07/18 06:14:58;;;;;;;14.05;7.53;;;;;;;;;;4993909;28;89820;-75
2022/07/18 06:17:24;;;;;;;10.98;6.60;;;;;;;;;;4996904;28;88267;-74
2022/07/18 06:19:51;;;;;;;10.57;7.03;;;;;;;;;;4994356;28;88758;-74
2022/07/18 06:22:17;;;;;;;12.52;7.60;;;;;;;;;;4996220;28;89695;-74
2022/07/18 06:24:44;;;;;;;9.70;6.50;;;;;;;;;;4996214;28;88968;-75
2022/07/18 06:27:10;;;;;;;13.88;6.97;;;;;;;;;;4989109;28;88860;-75
2022/07/18 06:29:36;;;;;;;14.93;6.85;;;;;;;;;;4995714;28;89708;-75
2022/07/18 06:32:03;;;;;;;9.55;6.78;;;;;;;;;;4994608;28;88108;-75
2022/07/18 06:34:29;;;;;;;15.20;7.18;;;;;;;;;;4996143;28;89172;-75
2022/07/18 06:36:56;;;;;;;16.52;6.70;;;;;;;;;;4987174;28;88773;-75
2022/07/18 06:39:22;;;;;;;8.82;6.85;;;;;;;;;;4982187;28;90070;-75
2022/07/18 06:41:50;;;;;;;12.95;6.65;;;;;;;;;;4986128;28;90145;-75
2022/07/18 06:44:17;;;;;;;10.77;5.95;;;;;;;;;;4982327;28;90436;-75
2022/07/18 06:46:43;;;;;;;11.05;5.82;;;;;;;;;;4986851;28;89408;-75
2022/07/18 06:49:10;;;;;;;11.55;5.63;;;;;;;;;;4999852;28;89378;-74
2022/07/18 06:51:36;;;;;;;9.98;5.35;;;;;;;;;;4998437;28;88037;-74
2022/07/18 06:54:03;;;;;;;8.25;5.00;;;;;;;;;;4987953;28;89106;-74
2022/07/18 06:56:29;;;;;;;9.07;5.13;;;;;;;;;;4987909;28;89019;-74
2022/07/18 06:58:55;;;;;;;11.80;5.38;;;;;;;;;;4994435;28;89176;-74
2022/07/18 07:01:22;;;;;;;12.18;4.60;;;;;;;;;;4992711;28;89460;-74
2022/07/18 07:03:48;;;;;;;9.55;5.05;;;;;;;;;;4993521;28;89378;-73
2022/07/18 07:06:15;;;;;;;9.13;5.20;;;;;;;;;;4988600;28;89259;-75
2022/07/18 07:08:42;;;;;;;10.90;4.68;;;;;;;;;;4990305;28;90528;-76
2022/07/18 07:11:09;;;;;;;13.20;4.78;;;;;;;;;;4989741;28;89161;-77
2022/07/18 07:13:35;;;;;;;9.35;4.40;;;;;;;;;;4988403;28;88068;-73
2022/07/18 07:16:02;;;;;;;7.97;4.68;;;;;;;;;;4984359;28;88489;-72
2022/07/18 07:18:29;;;;;;;9.25;4.55;;;;;;;;;;4994488;28;88508;-72
2022/07/18 07:20:55;;;;;;;15.20;4.43;;;;;;;;;;4983287;28;89315;-73
2022/07/18 07:23:21;;;;;;;10.38;4.95;;;;;;;;;;4981891;28;89252;-72
2022/07/18 07:25:48;;;;;;;9.10;4.10;;;;;;;;;;4987553;28;88640;-72
2022/07/18 07:28:14;;;;;;;20.80;4.18;;;;;;;;;;4983769;28;89969;-72
2022/07/18 07:30:42;;;;;;;5.53;3.60;;;;;;;;;;4982110;27;88471;-72
2022/07/18 07:33:09;;;;;;;7.93;4.03;;;;;;;;;;4978657;28;89416;-73
2022/07/18 07:35:35;;;;;;;9.43;3.22;;;;;;;;;;4983059;28;89054;-72
2022/07/18 07:38:02;;;;;;;10.45;3.63;;;;;;;;;;4985402;28;91028;-73
2022/07/18 07:40:28;;;;;;;8.02;3.67;;;;;;;;;;4982779;28;91148;-73
2022/07/18 07:43:05;;;;;;;7.53;3.45;;;;;;;;;;4981430;28;88705;-72
2022/07/18 07:45:31;;;;;;;12.40;3.50;;;;;;;;;;4983674;28;89763;-73
2022/07/18 07:47:58;;;;;;;8.30;3.58;;;;;;;;;;4980809;28;89680;-73
2022/07/18 07:50:24;;;;;;;9.13;3.60;;;;;;;;;;4990476;28;89924;-72
2022/07/18 07:52:50;;;;;;;11.57;3.10;;;;;;;;;;4986255;28;88094;-73
2022/07/18 07:55:17;;;;;;;6.72;3.13;;;;;;;;;;4986924;28;89831;-73
2022/07/18 07:57:43;;;;;;;9.00;2.63;;;;;;;;;;4987810;27;89939;-73
2022/07/18 08:00:10;;;;;;;7.72;3.20;;;;;;;;;;4986986;28;89862;-73
2022/07/18 08:02:49;;;;;;;11.18;3.58;;;;;;;;;;4982462;28;89194;-73
2022/07/18 08:05:24;;;;;;;7.28;3.00;;;;;;;;;;4990945;28;89444;-74
2022/07/18 08:07:50;;;;;;;3.85;2.38;;;;;;;;;;4989433;28;89050;-75
2022/07/18 08:10:17;;;;;;;10.38;3.65;;;;;;;;;;4997100;28;89651;-75
2022/07/18 08:12:43;;;;;;;9.98;2.72;;;;;;;;;;4991818;28;90230;-75
2022/07/18 08:15:09;;;;;;;8.73;2.63;;;;;;;;;;4987897;28;88618;-73
2022/07/18 08:17:36;;;;;;;8.73;2.58;;;;;;;;;;4989684;28;89306;-73
2022/07/18 08:20:03;;;;;;;6.57;1.90;;;;;;;;;;4982333;28;88491;-74
2022/07/18 08:22:29;;;;;;;3.83;2.13;;;;;;;;;;4991252;28;90422;-73
2022/07/18 08:24:57;;;;;;;8.50;2.78;;;;;;;;;;4989678;28;89955;-74
2022/07/18 08:27:23;;;;;;;9.35;2.83;;;;;;;;;;4985862;28;88832;-74
2022/07/18 08:29:50;;;;;;;7.50;2.08;;;;;;;;;;4981193;28;89233;-74
2022/07/18 08:32:34;;;;;;;8.45;2.63;;;;;;;;;;4981317;28;90071;-77
2022/07/18 08:35:00;;;;;;;15.18;3.08;;;;;;;;;;4983167;28;90095;-74
2022/07/18 08:37:27;;;;;;;12.05;2.47;;;;;;;;;;4986928;28;88952;-74
2022/07/18 08:39:53;;;;;;;5.15;2.08;;;;;;;;;;4983542;28;89406;-73
2022/07/18 08:42:21;;;;;;;11.48;1.83;;;;;;;;;;4985771;28;90154;-74
2022/07/18 08:44:48;;;;;;;11.13;2.30;;;;;;;;;;4985984;28;88746;-74
2022/07/18 08:47:17;;;;;;;8.02;2.65;;;;;;;;;;4992260;28;90230;-73
2022/07/18 08:49:43;;;;;;;12.05;2.03;;;;;;;;;;4981041;28;88985;-73
2022/07/18 08:52:10;;;;;;;9.70;2.60;;;;;;;;;;4990264;28;89710;-73
2022/07/18 08:54:49;;;;;;;7.90;2.53;;;;;;;;;;4985608;28;89259;-76
2022/07/18 08:57:25;;;;;;;4.53;2.10;;;;;;;;;;4992873;28;88434;-72
2022/07/18 08:59:51;;;;;;;18.17;2.10;;;;;;;;;;4988163;28;88871;-72
2022/07/18 09:02:17;;;;;;;8.27;2.70;;;;;;;;;;4991230;28;89645;-72
2022/07/18 09:04:44;;;;;;;12.63;2.60;;;;;;;;;;4983445;28;88721;-73
2022/07/18 09:07:22;;;;;;;4.65;2.00;;;;;;;;;;4994864;27;88203;-73
2022/07/18 09:09:53;;;;;;;7.15;2.25;;;;;;;;;;5015654;28;88100;-74
2022/07/18 09:12:20;;;;;;;8.85;2.30;;;;;;;;;;4993231;28;90168;-71
2022/07/18 09:14:54;;;;;;;4.75;2.45;;;;;;;;;;5003374;28;87997;-74
2022/07/18 09:17:22;;;;;;;9.45;2.45;;;;;;;;;;5016782;28;88034;-75
2022/07/18 09:20:14;;;;;;;5.35;2.38;;;;;;;;;;5011883;28;88261;-74
2022/07/18 09:22:42;;;;;;;4.90;2.30;;;;;;;;;;4989776;28;89735;-73
2022/07/18 09:25:12;;;;;;;9.15;2.58;;;;;;;;;;4989058;28;89952;-73
2022/07/18 09:27:40;;;;;;;8.30;1.90;;;;;;;;;;4983162;28;89622;-73
2022/07/18 09:30:06;;;;;;;4.53;2.10;;;;;;;;;;5003281;28;88811;-73
2022/07/18 09:32:39;;;;;;;7.20;2.70;;;;;;;;;;4991667;28;89572;-72
2022/07/18 09:35:06;;;;;;;4.78;2.15;;;;;;;;;;4990576;28;88881;-72
2022/07/18 09:37:33;;;;;;;5.60;2.67;;;;;;;;;;4996476;28;88816;-71
2022/07/18 09:40:19;;;;;;;6.00;2.10;;;;;;;;;;4986703;28;89744;-72
2022/07/18 09:42:53;;;;;;;11.18;2.20;;;;;;;;;;4993398;28;90744;-73
2022/07/18 09:45:23;;;;;;;9.98;2.67;;;;;;;;;;5000034;28;88552;-72
2022/07/18 09:47:51;;;;;;;4.13;2.70;;;;;;;;;;4998698;28;89650;-72
2022/07/18 09:50:22;;;;;;;9.02;2.67;;;;;;;;;;5003458;28;89160;-72
2022/07/18 09:53:05;;;;;;;3.17;2.13;;;;;;;;;;5001949;28;89127;-72
2022/07/18 09:55:52;;;;;;;8.73;2.25;;;;;;;;;;4998500;28;89549;-71
2022/07/18 09:58:20;;;;;;;6.18;2.35;;;;;;;;;;5012898;28;88357;-73
2022/07/18 10:00:46;;;;;;;10.95;2.67;;;;;;;;;;5005994;28;88940;-73
2022/07/18 10:03:13;;;;;;;5.85;2.70;;;;;;;;;;5008856;28;89951;-73
2022/07/18 10:05:40;;;;;;;12.30;2.75;;;;;;;;;;5015004;28;88310;-75
2022/07/18 10:08:08;;;;;;;5.45;2.00;;;;;;;;;;4993972;28;89639;-74
2022/07/18 10:10:36;;;;;;;5.90;2.83;;;;;;;;;;5013464;28;89035;-74
2022/07/18 10:13:03;;;;;;;8.38;2.78;;;;;;;;;;5000517;28;88751;-74
2022/07/18 10:15:31;;;;;;;11.50;3.08;;;;;;;;;;4988430;28;89266;-72
2022/07/18 10:17:57;;;;;;;4.63;2.13;;;;;;;;;;4990836;28;88184;-72
2022/07/18 10:20:26;;;;;;;4.13;2.20;;;;;;;;;;4983602;27;88985;-73
2022/07/18 10:22:54;;;;;;;5.45;2.42;;;;;;;;;;4989399;28;89122;-73
2022/07/18 10:25:21;;;;;;;9.02;2.20;;;;;;;;;;4983632;27;90301;-73
2022/07/18 10:28:04;;;;;;;7.88;1.95;;;;;;;;;;4983608;28;88803;-72
2022/07/18 10:30:31;;;;;;;8.95;2.38;;;;;;;;;;4979788;28;88863;-73
2022/07/18 10:32:57;;;;;;;6.68;1.85;;;;;;;;;;4979219;28;89977;-73
2022/07/18 10:35:42;;;;;;;12.90;2.22;;;;;;;;;;4985645;28;90713;-72
2022/07/18 10:38:21;;;;;;;6.95;2.08;;;;;;;;;;4983891;28;89809;-72
2022/07/18 10:41:07;;;;;;;9.00;2.03;;;;;;;;;;4989603;28;89563;-72
2022/07/18 10:43:34;;;;;;;6.30;2.15;;;;;;;;;;4983686;28;93064;-73
2022/07/18 10:46:01;;;;;;;6.32;2.13;;;;;;;;;;4986673;28;92239;-73
2022/07/18 10:48:34;;;;;;;4.93;2.03;;;;;;;;;;4982395;28;93115;-72
2022/07/18 10:51:01;;;;;;;8.95;2.28;;;;;;;;;;4989786;28;93362;-72
2022/07/18 10:53:46;;;;;;;5.13;1.77;;;;;;;;;;4983075;28;95719;-72
2022/07/18 10:56:13;;;;;;;6.90;1.90;;;;;;;;;;4982873;28;96441;-72
2022/07/18 10:58:40;;;;;;;6.38;1.70;;;;;;;;;;4985066;28;94208;-74
2022/07/18 11:01:09;;;;;;;9.10;2.17;;;;;;;;;;4993500;28;93459;-73
2022/07/18 11:03:35;;;;;;;3.65;1.80;;;;;;;;;;4985953;28;93326;-71
2022/07/18 11:06:02;;;;;;;3.85;2.05;;;;;;;;;;4987351;28;92735;-72
2022/07/18 11:08:31;;;;;;;7.82;2.03;;;;;;;;;;5010662;28;92939;-71
2022/07/18 11:11:03;;;;;;;3.78;2.22;;;;;;;;;;5011675;28;93065;-72
2022/07/18 11:13:35;;;;;;;2.28;1.73;;;;;;;;;;5011710;28;92703;-71
2022/07/18 11:16:04;;;;;;;3.60;1.80;;;;;;;;;;5001644;28;92963;-72
2022/07/18 11:18:32;;;;;;;5.28;1.83;;;;;;;;;;4982610;28;95520;-73
2022/07/18 11:20:58;;;;;;;5.63;2.28;;;;;;;;;;4989808;28;92526;-71
2022/07/18 11:23:26;;;;;;;2.72;2.03;;;;;;;;;;4987186;28;93993;-72
2022/07/18 11:25:56;;;;;;;6.78;2.05;;;;;;;;;;4980433;28;92622;-72
2022/07/18 11:28:26;;;;;;;4.75;1.95;;;;;;;;;;4980433;28;93157;-71
2022/07/18 11:30:59;;;;;;;6.07;2.22;;;;;;;;;;4981265;28;94283;-72
2022/07/18 11:33:28;;;;;;;6.25;2.20;;;;;;;;;;4990222;28;92517;-72
2022/07/18 11:36:03;;;;;;;3.15;2.03;;;;;;;;;;4992436;28;93291;-72
2022/07/18 11:38:31;;;;;;;5.32;2.30;;;;;;;;;;4995129;28;93393;-72
2022/07/18 11:40:57;;;;;;;9.18;2.10;;;;;;;;;;4995062;28;93335;-71
2022/07/18 11:43:27;;;;;;;5.60;1.67;;;;;;;;;;4992637;28;94944;-71
2022/07/18 11:46:07;;;;;;;5.22;2.40;;;;;;;;;;4988494;28;93645;-71
2022/07/18 11:48:41;;;;;;;10.25;2.53;;;;;;;;;;4989156;28;92459;-72
2022/07/18 11:51:11;;;;;;;9.82;3.03;;;;;;;;;;4980045;28;94867;-71
2022/07/18 11:53:43;;;;;;;4.55;2.20;;;;;;;;;;4981841;28;95148;-72
2022/07/18 11:56:10;;;;;;;10.57;2.63;;;;;;;;;;4977566;28;93378;-71
2022/07/18 11:58:37;;;;;;;6.90;2.03;;;;;;;;;;4981446;28;93580;-71
2022/07/18 12:01:04;;;;;;;4.05;2.40;;;;;;;;;;4976907;28;91929;-72
2022/07/18 12:03:30;;;;;;;10.48;3.63;;;;;;;;;;4980353;28;94482;-72
2022/07/18 12:05:57;;;;;;;14.10;2.92;;;;;;;;;;4981599;28;92480;-71
2022/07/18 12:08:24;;;;;;;6.18;2.08;;;;;;;;;;4982277;28;97158;-71
2022/07/18 12:11:02;;;;;;;14.88;3.30;;;;;;;;;;4983220;28;94113;-71
2022/07/18 12:13:44;;;;;;;2.92;2.45;;;;;;;;;;4978482;27;94733;-72
2022/07/18 12:16:10;;;;;;;;;;;;;;;;;;4989545;28;92934;-72
2022/07/18 12:18:47;;;;;;;6.38;2.40;;;;;;;;;;4985539;28;122202;-71
2022/07/18 12:21:13;;;;;;;7.60;1.95;;;;;;;;;;4981973;28;94012;-71
2022/07/18 12:23:40;;;;;;;8.70;2.28;;;;;;;;;;4987164;28;94022;-72
2022/07/18 12:26:07;;;;;;;4.10;2.38;;;;;;;;;;4985650;28;92808;-70
2022/07/18 12:28:33;;;;;;;5.25;2.35;;;;;;;;;;4983969;28;94649;-72
2022/07/18 12:31:00;;;;;;;6.32;2.05;;;;;;;;;;4980226;28;94269;-72
2022/07/18 12:33:27;;;;;;;5.75;2.03;;;;;;;;;;4983644;28;96789;-71
2022/07/18 12:35:57;;;;;;;4.63;2.05;;;;;;;;;;4983629;28;96510;-71
2022/07/18 12:38:23;;;;;;;12.13;2.10;;;;;;;;;;4986240;28;94428;-71
2022/07/18 12:40:57;;;;;;;9.63;2.33;;;;;;;;;;4984294;28;94051;-72
2022/07/18 12:43:27;;;;;;;3.53;2.03;;;;;;;;;;4981683;28;94015;-72
2022/07/18 12:45:55;;;;;;;3.40;2.00;;;;;;;;;;4981381;28;94290;-71
2022/07/18 12:48:21;;;;;;;3.92;2.20;;;;;;;;;;4984221;28;93332;-71
2022/07/18 12:50:55;;;;;;;4.88;2.10;;;;;;;;;;4982627;28;93461;-71
2022/07/18 12:53:22;;;;;;;3.88;2.00;;;;;;;;;;4981372;28;93466;-71
2022/07/18 12:55:48;;;;;;;5.65;2.17;;;;;;;;;;4984682;28;93448;-72
2022/07/18 12:58:14;;;;;;;12.13;2.60;;;;;;;;;;4977608;28;96908;-71
2022/07/18 13:00:41;;;;;;;2.58;2.00;;;;;;;;;;4981888;28;94004;-71
2022/07/18 13:03:07;;;;;;;4.90;2.25;;;;;;;;;;4983525;28;94109;-71
2022/07/18 13:05:34;;;;;;;2.00;1.80;;;;;;;;;;4979907;28;94203;-71
2022/07/18 13:08:00;;;;;;;2.67;2.10;;;;;;;;;;4980117;28;93269;-71
2022/07/18 13:10:27;;;;;;;3.47;2.20;;;;;;;;;;4982497;28;94826;-71
2022/07/18 13:12:53;;;;;;;4.05;2.00;;;;;;;;;;4981235;28;93543;-72
2022/07/18 13:15:20;;;;;;;4.75;2.92;;;;;;;;;;4982056;28;92889;-72
2022/07/18 13:17:50;;;;;;;2.20;2.00;;;;;;;;;;4973627;28;94280;-71
2022/07/18 13:20:17;;;;;;;4.15;2.40;;;;;;;;;;4984184;28;94494;-72
2022/07/18 13:22:44;;;;;;;6.55;2.60;;;;;;;;;;4990868;28;94962;-72
2022/07/18 13:25:18;;;;;;;6.30;2.33;;;;;;;;;;4984162;27;93616;-72
2022/07/18 13:27:45;;;;;;;2.95;2.10;;;;;;;;;;4986673;28;92552;-73
2022/07/18 13:30:11;;;;;;;3.10;1.83;;;;;;;;;;4979501;28;93478;-74
2022/07/18 13:32:38;;;;;;;3.45;2.33;;;;;;;;;;4989908;28;94598;-73
2022/07/18 13:35:05;;;;;;;4.72;2.22;;;;;;;;;;4992318;28;93865;-71
2022/07/18 13:37:31;;;;;;;4.50;2.42;;;;;;;;;;5010168;28;93290;-72
2022/07/18 13:39:57;;;;;;;9.75;2.05;;;;;;;;;;5005923;28;91875;-72
2022/07/18 13:42:24;;;;;;;2.25;2.10;;;;;;;;;;5013671;28;92773;-72
2022/07/18 13:44:55;;;;;;;5.22;2.85;;;;;;;;;;5005513;28;93418;-73
2022/07/18 13:47:21;;;;;;;2.65;2.20;;;;;;;;;;5002087;28;96679;-72
2022/07/18 13:49:48;;;;;;;3.60;2.80;;;;;;;;;;5003471;28;95481;-73
2022/07/18 13:52:14;;;;;;;4.13;2.13;;;;;;;;;;4998327;28;94102;-73
2022/07/18 13:54:41;;;;;;;3.78;2.08;;;;;;;;;;4997746;28;92474;-75
2022/07/18 13:57:07;;;;;;;2.30;2.10;;;;;;;;;;5013346;28;93536;-73
2022/07/18 13:59:33;;;;;;;4.05;1.95;;;;;;;;;;5000432;28;92431;-72
2022/07/18 14:02:01;;;;;;;2.45;1.77;;;;;;;;;;5004204;28;94827;-71
2022/07/18 14:04:28;;;;;;;2.80;1.90;;;;;;;;;;4978722;28;93579;-71
2022/07/18 14:07:17;;;;;;;3.15;2.38;;;;;;;;;;4980083;28;94058;-70
2022/07/18 14:09:43;;;;;;;3.58;2.00;;;;;;;;;;4984053;28;93662;-71
2022/07/18 14:12:10;;;;;;;2.78;1.77;;;;;;;;;;4978697;28;97524;-71
2022/07/18 14:14:36;;;;;;;2.10;1.92;;;;;;;;;;4980913;28;95452;-71
2022/07/18 14:17:03;;;;;;;5.25;2.30;;;;;;;;;;4981631;28;93358;-71
2022/07/18 14:19:29;;;;;;;8.13;1.88;;;;;;;;;;4988111;28;92837;-71
2022/07/18 14:21:56;;;;;;;2.83;1.73;;;;;;;;;;4984704;28;93853;-72
2022/07/18 14:24:22;;;;;;;8.35;2.20;;;;;;;;;;4995768;28;93820;-71
2022/07/18 14:26:48;;;;;;;3.72;2.30;;;;;;;;;;4983374;28;93784;-71
2022/07/18 14:29:15;;;;;;;4.75;2.05;;;;;;;;;;4984426;28;93346;-71
2022/07/18 14:31:41;;;;;;;3.33;1.92;;;;;;;;;;4982508;28;93457;-71
2022/07/18 14:34:07;;;;;;;6.72;1.88;;;;;;;;;;4984470;28;92520;-71
2022/07/18 14:36:34;;;;;;;8.82;1.70;;;;;;;;;;4986025;28;95012;-72
2022/07/18 14:39:01;;;;;;;5.78;2.08;;;;;;;;;;4977821;28;93436;-71
2022/07/18 14:41:28;;;;;;;2.03;1.90;;;;;;;;;;4982927;28;93861;-72